Home > Products > Valid Products > MTR

000
SAUS43 KAPX 171255
MTRAPN
METAR KAPN 171254Z AUTO 12017G22KT 10SM CLR 01/M03 A3039 RMK AO2
SLP299 T00111033





000
SAUS43 KAPX 171155
MTRAPN
METAR KAPN 171154Z AUTO 12014G23KT 10SM BKN110 01/M03 A3039 RMK AO2
SLP299 T00061028 10011 20006 58006





000
SAUS43 KAPX 171055
MTRAPN
METAR KAPN 171054Z AUTO 12010KT 10SM OVC100 01/M03 A3040 RMK AO2
SLP304 T00061028





000
SAUS43 KAPX 170955
MTRAPN
METAR KAPN 170954Z AUTO 13010KT 10SM SCT065 OVC090 01/M04 A3040 RMK
AO2 SLP303 T00061039





000
SAUS43 KAPX 170855
MTRAPN
METAR KAPN 170854Z AUTO 13009KT 10SM OVC055 01/M04 A3041 RMK AO2
SLP304 T00111039 53006





000
SAUS43 KAPX 170755
MTRAPN
METAR KAPN 170754Z AUTO 13009KT 10SM OVC065 01/M04 A3040 RMK AO2
SLP302 T00111044





000
SAUS43 KAPX 170655
MTRAPN
METAR KAPN 170654Z AUTO 15012KT 10SM OVC060 01/M04 A3039 RMK AO2
SLP301 T00111044





000
SAUS43 KAPX 170555
MTRAPN
METAR KAPN 170554Z AUTO 14010KT 10SM OVC070 01/M04 A3039 RMK AO2
SLP299 T00111044 10011 20000 56005





000
SAUS43 KAPX 170455
MTRAPN
METAR KAPN 170454Z AUTO 14010KT 10SM OVC090 01/M04 A3039 RMK AO2
SLP300 T00061044 400331111





000
SAUS43 KAPX 170355
MTRAPN
METAR KAPN 170354Z AUTO 14012KT 10SM SCT075 OVC090 01/M05 A3039 RMK
AO2 SLP302 T00061050





000
SAUS43 KAPX 170255
MTRAPN
METAR KAPN 170254Z AUTO 13010KT 10SM CLR 01/M06 A3040 RMK AO2 SLP306
T00061061 50004





000
SAUS43 KAPX 170155
MTRAPN
METAR KAPN 170154Z AUTO 13008KT 10SM OVC049 00/M06 A3041 RMK AO2
SLP310 T00001061





000
SAUS43 KAPX 170055
MTRAPN
METAR KAPN 170054Z AUTO 15010KT 10SM BKN060 OVC075 00/M06 A3041 RMK
AO2 SLP310 T00001061





000
SAUS43 KAPX 162355
MTRAPN
METAR KAPN 162354Z AUTO 14012KT 10SM BKN110 00/M06 A3039 RMK AO2
SLP303 T00001061 10033 20000 50008





000
SAUS43 KAPX 162255
MTRAPN
METAR KAPN 162254Z AUTO 15015G19KT 10SM BKN120 01/M06 A3039 RMK AO2
SLP304 T00111056





000
SAUS43 KAPX 162155
MTRAPN
METAR KAPN 162154Z AUTO 13012G22KT 10SM SCT055 02/M04 A3037 RMK AO2
SLP296 T00171039





000
SAUS43 KAPX 162055
MTRAPN
METAR KAPN 162054Z AUTO 12012KT 10SM FEW060 03/M06 A3037 RMK AO2
SLP294 T00281061 56010





000
SAUS43 KAPX 161955
MTRAPN
METAR KAPN 161954Z AUTO 10015G19KT 10SM CLR 03/M04 A3037 RMK AO2
SLP296 T00281039





000
SAUS43 KAPX 161855
MTRAPN
METAR KAPN 161854Z AUTO 10013KT 10SM BKN050 02/M03 A3039 RMK AO2
SLP301 T00171033





000
SAUS43 KAPX 161755
MTRAPN
METAR KAPN 161754Z AUTO 10012KT 10SM OVC050 01/M05 A3040 RMK AO2
SLP304 T00111050 10017 21078 58006





000
SAUS43 KAPX 161655
MTRAPN
METAR KAPN 161654Z AUTO 12010KT 10SM SCT039 01/M06 A3041 RMK AO2
SLP308 T00061061





000
SAUS43 KAPX 161555
MTRAPN
METAR KAPN 161554Z AUTO VRB03KT 10SM CLR M01/M08 A3042 RMK AO2
SLP312 T10061078





000
SAUS43 KAPX 161455
MTRAPN
METAR KAPN 161454Z AUTO 20006KT 10SM CLR M02/M10 A3041 RMK AO2
SLP311 T10221100 51019





000
SAUS43 KAPX 161355
MTRAPN
METAR KAPN 161354Z AUTO 15005KT 10SM CLR M04/M09 A3041 RMK AO2
SLP308 T10391094





000
SAUS43 KAPX 161255
MTRAPN
METAR KAPN 161254Z AUTO 19004KT 10SM CLR M05/M09 A3039 RMK AO2
SLP303 T10501089





000
SAUS43 KAPX 161155
MTRAPN
METAR KAPN 161154Z AUTO 22003KT 10SM CLR M08/M08 A3036 RMK AO2
SLP293 60000 70001 I6001 T10781083 11056 21111 53030





000
SAUS43 KAPX 161055
MTRAPN
METAR KAPN 161054Z AUTO 00000KT 10SM CLR M11/M11 A3033 RMK AO2
SLP284 T11061111





000
SAUS43 KAPX 160955
MTRAPN
METAR KAPN 160954Z AUTO 00000KT 10SM CLR M11/M11 A3029 RMK AO2
SLP272 I1001 T11061111





000
SAUS43 KAPX 160855
MTRAPN
METAR KAPN 160854Z AUTO 23003KT 10SM CLR M09/M09 A3027 RMK AO2
SLP264 60000 I1000 I3000 T10891094 53013





000
SAUS43 KAPX 160755
MTRAPN
METAR KAPN 160754Z AUTO 24003KT 10SM CLR M07/M08 A3025 RMK AO2
SLP256 T10721083





000
SAUS43 KAPX 160738
MTRAPN
SPECI KAPN 160737Z AUTO 00000KT 10SM SCT025 M07/M08 A3025 RMK AO2
T10721083





000
SAUS43 KAPX 160715
MTRAPN
SPECI KAPN 160714Z AUTO 00000KT 10SM BKN028 OVC036 M07/M08 A3024 RMK
AO2 T10671078





000
SAUS43 KAPX 160655
MTRAPN
METAR KAPN 160654Z AUTO 28003KT 7SM OVC038 M06/M08 A3024 RMK AO2
SNB20E51 SLP254 P0000 T10611078





000
SAUS43 KAPX 160555
MTRAPN
METAR KAPN 160554Z AUTO 00000KT 10SM OVC037 M06/M09 A3023 RMK AO2
SLP249 T10561089 11044 21094 51016





000
SAUS43 KAPX 160455
MTRAPN
METAR KAPN 160454Z AUTO 00000KT 10SM BKN050 M07/M09 A3021 RMK AO2
SLP243 T10721094 410331094





000
SAUS43 KAPX 160355
MTRAPN
METAR KAPN 160354Z AUTO 00000KT 10SM CLR M08/M09 A3020 RMK AO2
SLP240 T10831094





000
SAUS43 KAPX 160255
MTRAPN
METAR KAPN 160254Z AUTO 00000KT 10SM CLR M06/M09 A3018 RMK AO2
SLP233 T10611094 51031





000
SAUS43 KAPX 160155
MTRAPN
METAR KAPN 160154Z AUTO 32003KT 10SM FEW041 BKN050 M06/M11 A3016 RMK
AO2 SLP225 T10561106





000
SAUS43 KAPX 160055
MTRAPN
METAR KAPN 160054Z AUTO 31004KT 10SM SCT045 SCT060 M05/M12 A3013 RMK
AO2 SLP215 T10501117





000
SAUS43 KAPX 152355
MTRAPN
METAR KAPN 152354Z AUTO 32010KT 10SM BKN050 BKN060 M04/M13 A3009 RMK
AO2 SLP201 60000 T10441133 11033 21044 51018





000
SAUS43 KAPX 152255
MTRAPN
METAR KAPN 152254Z AUTO 31008KT 10SM BKN048 M04/M13 A3007 RMK AO2
SLP195 T10391133





000
SAUS43 KAPX 152155
MTRAPN
METAR KAPN 152154Z AUTO 29010G21KT 10SM SCT047 BKN060 M04/M13 A3005
RMK AO2 SNB04E13 SLP189 P0000 T10391133





000
SAUS43 KAPX 152055
MTRAPN
METAR KAPN 152054Z AUTO 34014G20KT 10SM OVC047 M04/M11 A3003 RMK AO2
SLP182 T10441111 53019





000
SAUS43 KAPX 151955
MTRAPN
METAR KAPN 151954Z AUTO 33012G18KT 10SM BKN048 OVC060 M04/M13 A3001
RMK AO2 SLP175 T10391128





000
SAUS43 KAPX 151855
MTRAPN
METAR KAPN 151854Z AUTO 32018G27KT 10SM OVC049 M04/M14 A2999 RMK AO2
PK WND 31027/1822 SLP167 T10391139





000
SAUS43 KAPX 151755
MTRAPN
METAR KAPN 151754Z AUTO 34016G22KT 10SM FEW030 BKN040 OVC049 M04/M12
A2997 RMK AO2 UPB31E38SNB1656E25 SLP161 P0000 60001 T10441122 11039
21067 51017





000
SAUS43 KAPX 151655
MTRAPN
METAR KAPN 151654Z AUTO 31014G20KT 9SM SCT033 OVC044 M05/M11 A2996
RMK AO2 PK WND 32026/1603 UPB05E06 SLP156 P0000 T10501111





000
SAUS43 KAPX 151555
MTRAPN
METAR KAPN 151554Z AUTO 31016G24KT 10SM FEW026 OVC033 M05/M12 A2995
RMK AO2 SNE43 SLP152 P0000 T10501117





000
SAUS43 KAPX 151548
MTRAPN
SPECI KAPN 151547Z AUTO 32017G22KT 9SM SCT026 OVC033 M05/M11 A2995
RMK AO2 SNE43 P0000 T10501111





000
SAUS43 KAPX 151508
MTRAPN
SPECI KAPN 151507Z AUTO 31014G21KT 4SM -SN SCT015 BKN021 OVC026
M06/M09 A2993 RMK AO2 P0000 T10561089





000
SAUS43 KAPX 151458
MTRAPN
SPECI KAPN 151457Z AUTO 32015G22KT 3SM -SN BKN014 BKN020 OVC034
M06/M10 A2993 RMK AO2 P0000 T10561100





000
SAUS43 KAPX 151455
MTRAPN
METAR KAPN 151454Z AUTO 31015G21KT 1 3/4SM -SN BKN014 BKN020 OVC034
M06/M09 A2992 RMK AO2 SLP145 P0000 60001 T10611089 53013





000
SAUS43 KAPX 151438
MTRAPN
SPECI KAPN 151437Z AUTO 31012KT 1/2SM SN FZFG BKN013 BKN017 OVC025
M06/M08 A2992 RMK AO2 P0000 T10611078





000
SAUS43 KAPX 151435
MTRAPN
SPECI KAPN 151434Z AUTO 31009KT 1SM -SN BKN017 BKN025 OVC037 M06/M08
A2991 RMK AO2 P0000 T10561083





000
SAUS43 KAPX 151425
MTRAPN
SPECI KAPN 151424Z AUTO 33014G18KT 2 1/2SM -SN BKN017 BKN025 OVC037
M06/M09 A2991 RMK AO2 VIS 1 1/2V4 P0000 T10561089





000
SAUS43 KAPX 151406
MTRAPN
SPECI KAPN 151405Z AUTO 33011KT 3SM -SN FEW013 SCT020 OVC036 M06/M09
A2991 RMK AO2 P0000 T10611089





000
SAUS43 KAPX 151355
MTRAPN
METAR KAPN 151354Z AUTO 32016G22KT 3SM -SN FEW013 BKN025 OVC036
M07/M09 A2991 RMK AO2 SLP140 P0000 T10671094





000
SAUS43 KAPX 151350
MTRAPN
SPECI KAPN 151349Z AUTO 33014G21KT 3SM -SN SCT015 BKN025 OVC036
M06/M09 A2990 RMK AO2 P0000





000
SAUS43 KAPX 151329
MTRAPN
SPECI KAPN 151327Z AUTO 34016KT 1 1/4SM -SN BR SCT013 BKN020 OVC025
M07/M09 A2991 RMK AO2 P0000 T10671089





000
SAUS43 KAPX 151304
MTRAPN
SPECI KAPN 151303Z AUTO 33010KT 1 3/4SM -SN BR BKN013 BKN021 OVC028
M06/M08 A2990 RMK AO2 P0000 T10611083





000
SAUS43 KAPX 151255
MTRAPN
METAR KAPN 151254Z AUTO 32013G18KT 2 1/2SM -SN BKN015 BKN023 OVC033
M06/M09 A2990 RMK AO2 SLP135 P0001 T10611089





000
SAUS43 KAPX 151236
MTRAPN
SPECI KAPN 151235Z AUTO 33012G20KT 3SM -SN BR SCT012 OVC022 M07/M08
A2989 RMK AO2 P0001 T10671083





000
SAUS43 KAPX 151155
MTRAPN
METAR KAPN 151154Z AUTO 32009KT 1 3/4SM -SN BR SCT014 OVC026 M07/M08
A2988 RMK AO2 SLP130 P0000 60001 70052 T10671083 11039 21067 51015





000
SAUS43 KAPX 151152
MTRAPN
SPECI KAPN 151150Z AUTO 32009KT 2SM -SN BR FEW014 BKN028 OVC034
M07/M08 A2988 RMK AO2 P0000





000
SAUS43 KAPX 151144
MTRAPN
SPECI KAPN 151142Z AUTO 33007KT 1 3/4SM -SN BR SCT014 BKN028 OVC036
M06/M08 A2988 RMK AO2 P0000 T10611078





000
SAUS43 KAPX 151136
MTRAPN
SPECI KAPN 151134Z AUTO 34010KT 2SM -SN BR FEW014 BKN028 OVC036
M07/M08 A2988 RMK AO2 P0000 T10671083





000
SAUS43 KAPX 151127
MTRAPN
SPECI KAPN 151126Z AUTO 34012KT 2 1/2SM -SN BR SCT014 BKN030 OVC035
M07/M08 A2987 RMK AO2 P0000 T10671083





000
SAUS43 KAPX 151119
MTRAPN
SPECI KAPN 151118Z AUTO 33009KT 1 3/4SM -SN BR SCT013 OVC034 M06/M08
A2987 RMK AO2 P0000 T10611078





000
SAUS43 KAPX 151112
MTRAPN
SPECI KAPN 151111Z AUTO 34010KT 2SM -SN BR FEW013 OVC034 M06/M08
A2986 RMK AO2 P0000 T10611078





000
SAUS43 KAPX 151055
MTRAPN
METAR KAPN 151054Z AUTO 34011KT 3SM -SN BR FEW013 BKN036 OVC080
M06/M08 A2986 RMK AO2 SLP121 P0000 T10611078





000
SAUS43 KAPX 151039
MTRAPN
SPECI KAPN 151038Z AUTO 32011KT 5SM -SN BR SCT012 BKN044 OVC080
M06/M08 A2985 RMK AO2 P0000 T10611078





000
SAUS43 KAPX 151023
MTRAPN
SPECI KAPN 151022Z AUTO 32011KT 4SM -SN BR BKN012 BKN024 OVC085
M06/M08 A2984 RMK AO2 P0000 T10611078





000
SAUS43 KAPX 151015
MTRAPN
SPECI KAPN 151014Z AUTO 33010KT 2 1/2SM -SN BR SCT010 BKN014 OVC028
M06/M07 A2984 RMK AO2 P0000 T10611072





000
SAUS43 KAPX 150955
MTRAPN
METAR KAPN 150954Z AUTO 33009KT 2 1/2SM -SN BR OVC027 M06/M07 A2984
RMK AO2 SLP114 P0000 T10611072





000
SAUS43 KAPX 150945
MTRAPN
SPECI KAPN 150944Z AUTO 34012KT 2SM -SN BR OVC027 M06/M07 A2983 RMK
AO2 P0000 T10611072





000
SAUS43 KAPX 150928
MTRAPN
SPECI KAPN 150927Z AUTO 33011KT 2 1/2SM -SN BR FEW013 SCT027 OVC036
M06/M07 A2983 RMK AO2 P0000 T10561072





000
SAUS43 KAPX 150910
MTRAPN
SPECI KAPN 150909Z AUTO 34011KT 4SM -SN BR SCT013 OVC036 M06/M07
A2983 RMK AO2 P0000 T10561072





000
SAUS43 KAPX 150855
MTRAPN
METAR KAPN 150854Z AUTO 34011KT 5SM -SN BR SCT013 BKN019 OVC032
M06/M07 A2983 RMK AO2 SLP111 P0000 60001 T10561072 53001





000
SAUS43 KAPX 150845
MTRAPN
SPECI KAPN 150844Z AUTO 32008KT 4SM -SN BR SCT012 OVC017 M05/M07
A2983 RMK AO2 P0000 T10501067





000
SAUS43 KAPX 150838
MTRAPN
SPECI KAPN 150837Z AUTO 33008KT 4SM -SN BR BKN013 BKN019 OVC024
M05/M07 A2982 RMK AO2 P0000 T10501067





000
SAUS43 KAPX 150821
MTRAPN
SPECI KAPN 150820Z AUTO 34013KT 2 1/2SM -SN BR FEW011 BKN016 OVC029
M05/M07 A2982 RMK AO2 P0000 T10501067





000
SAUS43 KAPX 150756
MTRAPN
METAR KAPN 150754Z AUTO 34009KT 4SM -SN BR BKN013 OVC022 M05/M06
A2983 RMK AO2 SLP109 P0000 T10501061





000
SAUS43 KAPX 150747
MTRAPN
SPECI KAPN 150746Z AUTO 33008KT 4SM -SN BR BKN013 BKN019 OVC046
M05/M06 A2983 RMK AO2 P0000 T10501061





000
SAUS43 KAPX 150721
MTRAPN
SPECI KAPN 150720Z AUTO 35009KT 3SM -SN BR FEW009 BKN019 OVC032
M05/M06 A2982 RMK AO2 P0000 T10501061





000
SAUS43 KAPX 150707
MTRAPN
SPECI KAPN 150706Z AUTO 35008KT 3SM -SN BR SCT010 BKN018 OVC032
M05/M06 A2982 RMK AO2 P0000 T10501061





000
SAUS43 KAPX 150656
MTRAPN
METAR KAPN 150654Z AUTO 35009KT 2 1/2SM -SN BR BKN010 BKN015 OVC028
M04/M06 A2982 RMK AO2 SLP108 P0001 T10441061





000
SAUS43 KAPX 150654
MTRAPN
SPECI KAPN 150652Z AUTO 36012KT 2 1/2SM -SN BR SCT010 BKN015 OVC028
M04/M06 A2982 RMK AO2 P0001





000
SAUS43 KAPX 150648
MTRAPN
SPECI KAPN 150646Z AUTO 36013KT 3SM -SN BR BKN010 BKN015 OVC028
M04/M06 A2982 RMK AO2 P0001 T10441061





000
SAUS43 KAPX 150636
MTRAPN
SPECI KAPN 150635Z AUTO 35011KT 2SM -SN BR BKN009 BKN014 OVC026
M04/M06 A2983 RMK AO2 P0001 T10441061





000
SAUS43 KAPX 150635
MTRAPN
SPECI KAPN 150633Z AUTO 35012KT 1 3/4SM -SN BR SCT009 BKN014 OVC026
M04/M06 A2983 RMK AO2 P0001 T10441056





000
SAUS43 KAPX 150626
MTRAPN
SPECI KAPN 150625Z AUTO 34011KT 2SM -SN BR BKN009 OVC014 M04/M05
A2984 RMK AO2 CIG 007V012 P0001 T10391050





000
SAUS43 KAPX 150619
MTRAPN
SPECI KAPN 150618Z AUTO 35007KT 2SM -SN BR SCT009 BKN014 OVC019
M04/M05 A2983 RMK AO2 P0001 T10391050





000
SAUS43 KAPX 150605
MTRAPN
SPECI KAPN 150602Z AUTO 33009KT 2SM -SN BR BKN014 BKN021 OVC027
M04/M05 A2982 RMK AO2 P0000 T10391050





000
SAUS43 KAPX 150555
MTRAPN
METAR KAPN 150554Z AUTO 34009KT 2SM -SN BR FEW011 BKN020 OVC025
M04/M05 A2983 RMK AO2 SLP110 P0002 60013 T10391050 11017 21044 58001





000
SAUS43 KAPX 150541
MTRAPN
SPECI KAPN 150540Z AUTO 36008KT 2SM -SN BR FEW009 SCT014 OVC025
M04/M05 A2983 RMK AO2 P0001 T10391050





000
SAUS43 KAPX 150525
MTRAPN
SPECI KAPN 150524Z AUTO 33008KT 2SM -SN BR FEW009 BKN014 OVC023
M04/M04 A2982 RMK AO2 P0001 T10391044





000
SAUS43 KAPX 150455
MTRAPN
METAR KAPN 150454Z AUTO 31009KT 1SM -SN BR OVC012 M04/M05 A2983 RMK
AO2 SLP111 P0004 T10441050 400441044





000
SAUS43 KAPX 150439
MTRAPN
SPECI KAPN 150438Z AUTO 32007KT 1SM -SN BR VV014 M04/M05 A2982 RMK
AO2 P0002 T10441050





000
SAUS43 KAPX 150420
MTRAPN
SPECI KAPN 150418Z AUTO 30007KT 1SM -SN BR VV015 M04/M05 A2983 RMK
AO2 P0001 T10441050





000
SAUS43 KAPX 150355
MTRAPN
METAR KAPN 150354Z AUTO 31008KT 1SM -SN BR VV014 M04/M05 A2983 RMK
AO2 SLP111 P0003 T10441050





000
SAUS43 KAPX 150329
MTRAPN
SPECI KAPN 150328Z AUTO 30007KT 1SM -SN BR VV011 M04/M05 A2985 RMK
AO2 P0002 T10391050





000
SAUS43 KAPX 150315
MTRAPN
SPECI KAPN 150314Z AUTO 30009KT 3/4SM -SN BR VV012 M04/M05 A2985 RMK
AO2 P0001 T10391050





000
SAUS43 KAPX 150257
MTRAPN
METAR KAPN 150254Z AUTO 31009G18KT 1 3/4SM -SN BR FEW010 OVC020
M04/M05 A2983 RMK AO2 SLP111 P0002 60004 T10391050 50011





000
SAUS43 KAPX 150245
MTRAPN
SPECI KAPN 150244Z AUTO 31010G17KT 2SM -SN BR FEW008 OVC020 M04/M06
A2983 RMK AO2 P0002 T10391056





000
SAUS43 KAPX 150226
MTRAPN
SPECI KAPN 150224Z AUTO 31006KT 1SM -SN BR SCT007 OVC022 M04/M04
A2983 RMK AO2 P0001 T10391044





000
SAUS43 KAPX 150217
MTRAPN
SPECI KAPN 150216Z AUTO 31007KT 1 1/4SM -SN BR FEW012 OVC024 M04/M05
A2983 RMK AO2 P0001 T10391050





000
SAUS43 KAPX 150205
MTRAPN
SPECI KAPN 150204Z AUTO 31009G17KT 1 3/4SM -SN BR FEW012 SCT017
OVC031 M03/M05 A2983 RMK AO2 P0000 T10331050





000
SAUS43 KAPX 150155
MTRAPN
SPECI KAPN 150153Z AUTO 32013G21KT 2SM -SN BR SCT014 OVC031 M03/M05
A2983 RMK AO2 P0000 T10331050





000
SAUS43 KAPX 150150
MTRAPN
METAR KAPN 150149Z AUTO 31010G17KT 2SM -SN BR BKN014 OVC029 M03/M05
A2983 RMK AO2 SLP109 P0002 T10331050





000
SAUS43 KAPX 150136
MTRAPN
SPECI KAPN 150135Z AUTO 31012G18KT 1 1/2SM -SN BR FEW009 BKN016
OVC023 M03/M05 A2983 RMK AO2 P0002 T10331050





000
SAUS43 KAPX 150127
MTRAPN
SPECI KAPN 150126Z AUTO 30010G17KT 1 3/4SM -SN BR BKN011 BKN019
OVC026 M03/M04 A2982 RMK AO2 P0001 T10281044





000
SAUS43 KAPX 150055
MTRAPN
METAR KAPN 150054Z AUTO 32012KT 1 3/4SM -SN BR SCT016 OVC024 M03/M04
A2980 RMK AO2 SNB10 SLP099 P0000 T10281044





000
SAUS43 KAPX 150038
MTRAPN
SPECI KAPN 150037Z AUTO 31010G21KT 2SM -SN BR BKN016 OVC029 M02/M04
A2980 RMK AO2 SNB10 P0000 T10221044





000
SAUS43 KAPX 142355
MTRAPN
METAR KAPN 142354Z AUTO 32014G21KT 10SM BKN015 OVC020 M02/M04 A2979
RMK AO2 UPB09E45 SLP095 P0000 60000 T10171044 10028 21017 51020





000
SAUS43 KAPX 142255
MTRAPN
METAR KAPN 142254Z AUTO 31012G21KT 10SM OVC015 M01/M04 A2978 RMK AO2
UPB23E29SNB04E23 SLP092 P0000 T10111039





000
SAUS43 KAPX 142252
MTRAPN
SPECI KAPN 142251Z AUTO 31015G21KT 10SM OVC015 M01/M04 A2977 RMK AO2
UPB23E29SNB04E23 P0000





000
SAUS43 KAPX 142226
MTRAPN
SPECI KAPN 142225Z AUTO 32014G25KT 9SM UP FEW008 BKN013 OVC021
M01/M03 A2976 RMK AO2 UPB23SNB04E23 P0000 T10061028





000
SAUS43 KAPX 142220
MTRAPN
SPECI KAPN 142218Z AUTO 32016G25KT 2 1/2SM -SN BR FEW008 BKN011
OVC021 00/M02 A2975 RMK AO2 SNB04 P0000 T00001022





000
SAUS43 KAPX 142208
MTRAPN
SPECI KAPN 142207Z AUTO 31012G22KT 1 3/4SM -SN BR FEW009 BKN021
OVC028 01/M01 A2974 RMK AO2 SNB04 P0000 T00061011





000
SAUS43 KAPX 142155
MTRAPN
METAR KAPN 142154Z AUTO 32015G22KT 10SM BKN021 OVC027 02/M02 A2973
RMK AO2 SLP074 T00171022





000
SAUS43 KAPX 142055
MTRAPN
METAR KAPN 142054Z AUTO 31009G20KT 10SM OVC018 02/M02 A2970 RMK AO2
SLP063 60000 T00221017 51037





000
SAUS43 KAPX 141955
MTRAPN
METAR KAPN 141954Z AUTO 31012G20KT 10SM BKN018 OVC023 02/M02 A2968
RMK AO2 PK WND 33026/1917 SLP058 T00221017





000
SAUS43 KAPX 141855
MTRAPN
METAR KAPN 141854Z AUTO 30016G23KT 10SM OVC018 02/M01 A2963 RMK AO2
PK WND 32031/1800 UPB00E08B21E22SNB08E21B22E23 PRESRR SLP040 P0000
T00221011





000
SAUS43 KAPX 141755
MTRAPN
METAR KAPN 141754Z AUTO 31016G26KT 10SM BKN020 OVC028 03/M01 A2959
RMK AO2 PK WND 32029/1736 UPB1657E08B19E36RAB08E09B16E17B36E37
PRESRR SLP026 P0000 60038 T00281006 10044 20022 51066





000
SAUS43 KAPX 141714
MTRAPN
SPECI KAPN 141713Z AUTO 32019G27KT 10SM BKN016 OVC023 03/01 A2956
RMK AO2 PK WND 32027/1704 UPB1657E08RAB08E09 P0000 T00280006





000
SAUS43 KAPX 141655
MTRAPN
METAR KAPN 141654Z AUTO 32015G30KT 10SM BKN014 BKN019 OVC028 03/01
A2954 RMK AO2 PK WND 33030/1646 RAE20 SLP011 P0000 T00280006





000
SAUS43 KAPX 141613
MTRAPN
SPECI KAPN 141612Z AUTO 31015G29KT 5SM -RA BR BKN010 OVC016 03/02
A2950 RMK AO2 PK WND 33029/1604 P0000 T00280017





000
SAUS43 KAPX 141555
MTRAPN
METAR KAPN 141554Z AUTO 32018G26KT 3SM -RA BR BKN008 OVC013 03/02
A2947 RMK AO2 PK WND 33026/1539 PRESRR SLP986 P0001 T00280017





000
SAUS43 KAPX 141543
MTRAPN
SPECI KAPN 141542Z AUTO 30010G26KT 270V350 3SM -RA BR BKN008 OVC012
03/02 A2946 RMK AO2 PK WND 33026/1539 PRESRR P0001 T00280017





000
SAUS43 KAPX 141516
MTRAPN
SPECI KAPN 141515Z AUTO 31013G23KT 2SM -RA BR OVC007 03/03 A2942 RMK
AO2 CIG 006V011 PRESRR P0000 T00330028





000
SAUS43 KAPX 141455
MTRAPN
METAR KAPN 141454Z AUTO 32010G22KT 3SM -RA BR OVC006 04/03 A2939 RMK
AO2 PK WND 33026/1437 RAE00B32 CIG 005V009 SLP957 P0000 60037
T00390033 51030





000
SAUS43 KAPX 141451
MTRAPN
SPECI KAPN 141450Z AUTO 33015G22KT 2 1/2SM -RA BR OVC006 04/03 A2938
RMK AO2 PK WND 33026/1437 RAE00B32 CIG 005V009 PRESRR P0000





000
SAUS43 KAPX 141355
MTRAPN
METAR KAPN 141354Z AUTO 32010KT 8SM -RA BKN008 OVC012 04/04 A2932
RMK AO2 SLP933 P0017 T00440039





000
SAUS43 KAPX 141345
MTRAPN
SPECI KAPN 141344Z AUTO 31007KT 3SM -RA BR BKN006 OVC012 04/03 A2933
RMK AO2 VIS 2 RY 19 P0016 T00390033





000
SAUS43 KAPX 141327
MTRAPN
SPECI KAPN 141326Z AUTO 29009KT 1 3/4SM RA BR BKN005 OVC009 04/03
A2933 RMK AO2 PRESRR P0005 T00390033





    US Dept of Commerce
    National Oceanic and Atmospheric Administration
    National Weather Service
    1325 East West Highway
    Silver Spring, MD 20910
    Page Author: NWS Internet Services Team
Disclaimer
Information Quality
Credits
Glossary
Privacy Policy
Freedom of Information Act (FOIA)
About Us
Career Opportunities